WLW6970 VNPL-VNLK
Flight info
| Callsign | WLW6970 |
|---|---|
| Flight time | 0h 6m |
| Altitude | 12500 |
| Route | 274051N0864258E |
| Aircraft | C208/L-SDFGR/C |
Departure
| Time | 2025-12-27 21:27 |
|---|---|
| Airport | Phaplu Airport (VNPL) |
Arrival
| Time | 2025-12-27 21:34 |
|---|---|
| Airport | Tenzing-Hillary Airport (VNLK) |
| Time | Latitude | Longitude | Altitude | Speed | Heading |
|---|---|---|---|---|---|
| 2025-12-27 21:03 | 27.51713 | 86.58424 | 8003 ft | 0 kts | 289° |
| 2025-12-27 21:09 | 27.51709 | 86.58415 | 8108 ft | 6 kts | 206° |
| 2025-12-27 21:10 | 27.51563 | 86.58389 | 8119 ft | 12 kts | 194° |
| 2025-12-27 21:10 | 27.51521 | 86.58386 | 8120 ft | 0 kts | 12° |
| 2025-12-27 21:11 | 27.51740 | 86.58486 | 8103 ft | 30 kts | 22° |
| 2025-12-27 21:11 | 27.51949 | 86.58586 | 8082 ft | 39 kts | 30° |
| 2025-12-27 21:12 | 27.52092 | 86.58653 | 8067 ft | 2 kts | 300° |
| 2025-12-27 21:12 | 27.52059 | 86.58634 | 8070 ft | 6 kts | 199° |
| 2025-12-27 21:13 | 27.52057 | 86.58633 | 8070 ft | 0 kts | 206° |
| 2025-12-27 21:26 | 27.51621 | 86.58429 | 8123 ft | 91 kts | 209° |
| 2025-12-27 21:27 | 27.50393 | 86.57809 | 8854 ft | 111 kts | 190° |
| 2025-12-27 21:27 | 27.49777 | 86.58307 | 9171 ft | 129 kts | 90° |
| 2025-12-27 21:28 | 27.52048 | 86.58905 | 10583 ft | 131 kts | 349° |
| 2025-12-27 21:28 | 27.53894 | 86.59299 | 11337 ft | 142 kts | 18° |
| 2025-12-27 21:28 | 27.54775 | 86.59697 | 11923 ft | 132 kts | 11° |
| 2025-12-27 21:29 | 27.56942 | 86.62052 | 13089 ft | 154 kts | 63° |
| 2025-12-27 21:30 | 27.57208 | 86.64567 | 13508 ft | 168 kts | 95° |
| 2025-12-27 21:30 | 27.57750 | 86.66975 | 13560 ft | 168 kts | 28° |
| 2025-12-27 21:30 | 27.58765 | 86.67675 | 13183 ft | 186 kts | 23° |
| 2025-12-27 21:31 | 27.60995 | 86.68902 | 12876 ft | 174 kts | 15° |
| 2025-12-27 21:31 | 27.63039 | 86.69961 | 12160 ft | 131 kts | 24° |
| 2025-12-27 21:32 | 27.64559 | 86.70435 | 11831 ft | 111 kts | 356° |
| 2025-12-27 21:32 | 27.66228 | 86.70705 | 10900 ft | 129 kts | 10° |
| 2025-12-27 21:33 | 27.68340 | 86.72324 | 9150 ft | 112 kts | 57° |
| 2025-12-27 21:34 | 27.68741 | 86.73069 | 9400 ft | 7 kts | 59° |
| 2025-12-27 21:34 | 27.68746 | 86.73183 | 9434 ft | 7 kts | 216° |
| 2025-12-27 21:34 | 27.68735 | 86.73169 | 9432 ft | 0 kts | 245° |
| 2025-12-27 21:37 | 27.68733 | 86.73161 | 9433 ft | 0 kts | 244° |